Time;durP1;ratioP1;P1;durP2;ratioP2;P2;SDS_P1;SDS_P2;PMS_P1;PMS_P2;Temp;Humidity;BMP_temperature;BMP_pressure;BME280_temperature;BME280_humidity;BME280_pressure;Samples;Min_cycle;Max_cycle;Signal;HPM_P1;HPM_P2
2022/06/25 00:01:27;;;;;;;9.25;2.00;;;;;;;21.23;100.00;99314.91;6274953;22;20090;-84
2022/06/25 00:03:54;;;;;;;3.80;2.20;;;;;;;21.23;100.00;99317.59;6275329;22;20417;-84
2022/06/25 00:06:20;;;;;;;5.53;2.63;;;;;;;21.25;100.00;99323.56;6274635;22;20011;-82
2022/06/25 00:08:47;;;;;;;2.70;2.17;;;;;;;21.27;100.00;99324.16;6276296;22;20011;-83
2022/06/25 00:14:03;;;;;;;7.88;2.55;;;;;;;21.20;100.00;99323.41;6278095;22;20012;-84
2022/06/25 00:16:29;;;;;;;2.97;2.42;;;;;;;21.13;100.00;99319.91;6278176;22;20336;-84
2022/06/25 00:18:55;;;;;;;2.75;2.30;;;;;;;21.04;100.00;99319.31;6277884;22;20006;-82
2022/06/25 00:21:20;;;;;;;7.63;2.60;;;;;;;20.94;100.00;99321.66;6277041;22;20027;-82
2022/06/25 00:23:46;;;;;;;4.88;2.40;;;;;;;20.87;100.00;99331.59;6277273;22;20026;-82
2022/06/25 00:26:11;;;;;;;7.03;2.10;;;;;;;20.82;100.00;99334.94;6278092;22;20433;-83
2022/06/25 00:28:37;;;;;;;4.05;2.40;;;;;;;20.79;100.00;99335.34;6278752;22;20004;-83
2022/06/25 00:31:03;;;;;;;2.67;2.35;;;;;;;20.76;100.00;99329.59;6280815;22;20129;-82
2022/06/25 00:33:29;;;;;;;2.58;2.38;;;;;;;20.70;100.00;99336.63;6281033;22;20008;-82
2022/06/25 00:35:55;;;;;;;2.90;2.40;;;;;;;20.56;100.00;99335.03;6279950;22;20019;-82
2022/06/25 00:38:20;;;;;;;4.00;2.50;;;;;;;20.43;100.00;99337.78;6281886;22;20099;-81
2022/06/25 00:40:46;;;;;;;4.15;2.50;;;;;;;20.32;100.00;99338.44;6282550;22;20496;-85
2022/06/25 00:43:11;;;;;;;5.55;2.20;;;;;;;20.31;100.00;99331.41;6282127;22;20012;-84
2022/06/25 00:45:37;;;;;;;4.22;2.30;;;;;;;20.29;100.00;99338.81;6283034;22;20043;-84
2022/06/25 00:48:03;;;;;;;4.85;2.33;;;;;;;20.28;100.00;99331.81;6282852;22;20078;-83
2022/06/25 00:50:29;;;;;;;4.85;2.97;;;;;;;20.29;100.00;99338.81;6282363;22;20012;-85
2022/06/25 00:52:56;;;;;;;4.47;2.80;;;;;;;20.29;100.00;99338.81;6282291;22;20010;-82
2022/06/25 00:55:25;;;;;;;3.05;2.60;;;;;;;20.28;100.00;99342.53;6255479;22;20016;-84
2022/06/25 00:57:51;;;;;;;3.60;2.55;;;;;;;20.26;100.00;99344.59;6280441;22;20018;-83
2022/06/25 01:00:17;;;;;;;4.28;3.10;;;;;;;20.18;100.00;99344.81;6278403;22;20008;-83
2022/06/25 01:02:44;;;;;;;3.35;2.58;;;;;;;20.14;100.00;99351.63;6279486;22;20019;-84
2022/06/25 01:05:15;;;;;;;3.90;2.95;;;;;;;20.12;100.00;99348.34;6283513;22;20325;-84
2022/06/25 01:07:44;;;;;;;5.53;2.53;;;;;;;20.03;100.00;99345.88;6285143;22;20034;-83
2022/06/25 01:10:13;;;;;;;4.20;2.58;;;;;;;19.99;100.00;99351.84;6259003;22;20012;-82
2022/06/25 01:12:40;;;;;;;6.82;3.45;;;;;;;19.95;100.00;99354.13;6281843;22;20015;-82
2022/06/25 01:15:09;;;;;;;3.65;2.97;;;;;;;19.99;100.00;99350.00;6254583;22;20011;-82
2022/06/25 01:17:41;;;;;;;6.20;2.80;;;;;;;20.08;100.00;99357.81;6255684;22;20421;-83
2022/06/25 01:20:07;;;;;;;3.60;2.35;;;;;;;20.18;100.00;99353.69;6286017;22;20015;-83
2022/06/25 01:22:33;;;;;;;3.25;2.30;;;;;;;20.23;100.00;99361.09;6290751;22;20378;-83
2022/06/25 01:24:59;;;;;;;4.05;2.45;;;;;;;20.26;100.00;99366.84;6291338;22;20015;-82
2022/06/25 01:27:25;;;;;;;2.70;2.50;;;;;;;20.28;100.00;99364.78;6289018;22;20035;-81
2022/06/25 01:29:50;;;;;;;4.70;2.42;;;;;;;20.31;100.00;99363.56;6282564;22;20371;-80
2022/06/25 01:32:16;;;;;;;3.00;2.45;;;;;;;20.27;100.00;99352.41;6279581;22;20114;-80
2022/06/25 01:34:42;;;;;;;3.30;2.42;;;;;;;20.14;100.00;99352.47;6222500;22;20008;-80
2022/06/25 01:37:07;;;;;;;3.42;2.30;;;;;;;20.00;100.00;99356.19;6273508;22;20011;-80
2022/06/25 01:39:33;;;;;;;3.05;2.72;;;;;;;19.89;100.00;99354.97;6246833;22;20010;-79
2022/06/25 01:41:58;;;;;;;3.45;2.53;;;;;;;19.85;100.00;99355.59;6246691;22;20018;-80
2022/06/25 01:44:24;;;;;;;2.97;2.70;;;;;;;19.86;100.00;99360.72;6246116;22;20169;-80
2022/06/25 01:46:50;;;;;;;4.38;2.75;;;;;;;19.91;100.00;99352.09;6246693;22;20011;-80
2022/06/25 01:49:16;;;;;;;3.20;2.88;;;;;;;19.92;100.00;99351.84;6273589;22;20027;-79
2022/06/25 01:51:42;;;;;;;4.22;2.63;;;;;;;19.90;100.00;99359.28;6273727;22;20050;-82
2022/06/25 01:54:08;;;;;;;7.00;2.67;;;;;;;19.87;100.00;99351.66;6246059;22;20269;-81
2022/06/25 01:56:34;;;;;;;4.68;3.13;;;;;;;19.90;100.00;99356.63;6246798;22;20020;-81
2022/06/25 01:59:00;;;;;;;2.42;2.22;;;;;;;19.93;100.00;99345.47;6273066;22;20031;-85
2022/06/25 02:01:26;;;;;;;4.22;2.60;;;;;;;19.95;100.00;99348.78;6247305;22;20016;-83
2022/06/25 02:03:51;;;;;;;3.08;2.70;;;;;;;19.76;100.00;99344.25;6246909;22;20022;-83
2022/06/25 02:06:17;;;;;;;6.10;2.78;;;;;;;19.56;100.00;99348.78;6246790;22;20046;-84
2022/06/25 02:08:44;;;;;;;3.63;3.20;;;;;;;19.42;100.00;99349.78;6246203;22;20008;-83
2022/06/25 02:11:10;;;;;;;3.15;2.90;;;;;;;19.36;100.00;99348.75;6246276;22;20007;-83
2022/06/25 02:13:38;;;;;;;3.63;3.08;;;;;;;19.41;100.00;99342.78;6273926;22;20015;-83
2022/06/25 02:16:05;;;;;;;3.40;3.10;;;;;;;19.49;100.00;99347.97;6273609;22;20033;-82
2022/06/25 02:18:34;;;;;;;;;;;;;;;19.51;100.00;99345.91;6247283;22;20058;-84
2022/06/25 02:21:00;;;;;;;4.93;3.38;;;;;;;19.45;100.00;99341.31;6273754;22;19911;-82
2022/06/25 02:23:25;;;;;;;3.50;2.90;;;;;;;19.46;100.00;99337.66;6246626;22;20015;-82
2022/06/25 02:25:56;;;;;;;4.15;3.00;;;;;;;19.51;100.00;99338.69;6273486;22;20428;-82
2022/06/25 02:28:21;;;;;;;3.38;3.08;;;;;;;19.50;100.00;99341.56;6273327;22;20014;-82
2022/06/25 02:30:48;;;;;;;4.10;2.90;;;;;;;19.50;100.00;99338.88;6221459;22;20035;-81
2022/06/25 02:33:15;;;;;;;4.00;2.97;;;;;;;19.52;100.00;99336.84;6245867;22;20008;-81
2022/06/25 02:35:43;;;;;;;3.25;2.85;;;;;;;19.53;100.00;99338.50;6246719;22;20015;-81
2022/06/25 02:38:10;;;;;;;5.43;3.42;;;;;;;19.56;100.00;99343.41;6221045;22;20454;-81
2022/06/25 02:40:37;;;;;;;5.05;2.90;;;;;;;19.58;100.00;99347.56;6222553;22;20329;-82
2022/06/25 02:43:04;;;;;;;3.80;3.20;;;;;;;19.47;100.00;99350.03;6249186;22;20014;-82
2022/06/25 02:45:33;;;;;;;;;;;;;;;19.28;100.00;99348.94;6247063;22;20019;-82
2022/06/25 02:47:59;;;;;;;5.55;2.80;;;;;;;19.24;100.00;99350.38;6246443;22;19918;-82
2022/06/25 02:50:25;;;;;;;3.47;3.13;;;;;;;19.25;100.00;99348.53;6247633;22;20019;-84
2022/06/25 02:52:51;;;;;;;2.92;2.65;;;;;;;19.31;100.00;99350.38;6247037;22;20003;-84
2022/06/25 02:55:18;;;;;;;3.35;3.05;;;;;;;19.43;100.00;99354.09;6273375;22;20459;-84
2022/06/25 03:00:39;;;;;;;4.50;3.40;;;;;;;19.54;100.00;99361.56;6273796;22;20526;-83
2022/06/25 03:03:05;;;;;;;4.10;3.47;;;;;;;19.56;100.00;99367.50;6246396;22;20027;-82
2022/06/25 03:05:31;;;;;;;4.60;3.88;;;;;;;19.58;100.00;99371.63;6247838;22;20011;-83
2022/06/25 03:07:56;;;;;;;4.18;3.78;;;;;;;19.61;100.00;99378.44;6250123;22;20004;-84
2022/06/25 03:10:22;;;;;;;4.82;4.30;;;;;;;19.56;100.00;99383.56;6275575;22;20042;-84
2022/06/25 03:12:48;;;;;;;4.05;3.40;;;;;;;19.53;100.00;99375.97;6221532;22;20336;-84
2022/06/25 03:15:18;;;;;;;4.13;3.83;;;;;;;19.47;100.00;99382.13;6221975;22;20019;-82
2022/06/25 03:17:44;;;;;;;6.10;3.40;;;;;;;19.48;100.00;99383.78;6246668;22;20008;-83
2022/06/25 03:20:33;;;;;;;4.45;3.25;;;;;;;19.54;100.00;99378.44;6203980;22;20003;-84
2022/06/25 03:23:01;;;;;;;5.25;3.67;;;;;;;19.54;100.00;99382.97;6246319;22;20021;-83
2022/06/25 03:25:28;;;;;;;5.85;3.55;;;;;;;19.52;100.00;99390.38;6273285;22;20011;-81
2022/06/25 03:27:53;;;;;;;3.88;3.58;;;;;;;19.50;100.00;99384.38;6246334;22;20057;-81
2022/06/25 03:30:19;;;;;;;3.67;3.17;;;;;;;19.55;100.00;99387.28;6272957;22;20086;-81
2022/06/25 03:32:47;;;;;;;3.60;3.30;;;;;;;19.61;100.00;99384.59;6246325;22;20456;-82
2022/06/25 03:35:37;;;;;;;3.78;3.33;;;;;;;19.62;100.00;99386.25;6258253;22;20019;-82
2022/06/25 03:38:16;;;;;;;4.35;3.08;;;;;;;19.61;100.00;99383.81;6246483;22;20771;-83
2022/06/25 03:40:43;;;;;;;6.22;3.30;;;;;;;19.56;100.00;99387.06;6246420;22;20015;-82
2022/06/25 03:43:12;;;;;;;7.93;3.60;;;;;;;19.51;100.00;99388.72;6245876;22;20026;-83
2022/06/25 03:45:40;;;;;;;4.28;3.08;;;;;;;19.58;100.00;99378.84;6246754;22;20023;-84
2022/06/25 03:48:06;;;;;;;4.35;3.20;;;;;;;19.60;100.00;99382.97;6245893;22;20008;-83
2022/06/25 03:50:39;;;;;;;4.82;3.40;;;;;;;19.63;100.00;99387.09;6246215;22;20475;-83
2022/06/25 03:53:05;;;;;;;4.90;3.22;;;;;;;19.63;100.00;99389.75;6246266;22;20463;-84
2022/06/25 03:55:31;;;;;;;4.22;3.47;;;;;;;19.63;100.00;99387.09;6252213;22;20008;-82
2022/06/25 03:57:57;;;;;;;2.97;2.78;;;;;;;19.67;100.00;99393.69;6245369;22;20011;-82
2022/06/25 04:00:26;;;;;;;3.58;3.10;;;;;;;19.71;100.00;99394.91;6272722;22;20433;-82
2022/06/25 04:02:56;;;;;;;5.85;2.78;;;;;;;19.74;100.00;99394.50;6273189;22;20437;-83
2022/06/25 04:05:47;;;;;;;3.65;3.17;;;;;;;19.75;100.00;99396.16;6273169;22;20020;-82
2022/06/25 04:08:33;;;;;;;3.78;3.10;;;;;;;19.71;100.00;99402.94;6272056;22;20023;-83
2022/06/25 04:11:02;;;;;;;10.05;3.05;;;;;;;19.68;100.00;99406.03;6245456;22;20083;-82
2022/06/25 04:13:29;;;;;;;5.55;3.78;;;;;;;19.72;100.00;99407.28;6245092;22;20064;-82
2022/06/25 04:15:55;;;;;;;3.38;2.97;;;;;;;19.73;100.00;99411.63;6245237;22;20015;-82
2022/06/25 04:18:21;;;;;;;3.63;3.28;;;;;;;19.74;100.00;99420.44;6245471;22;20018;-82
2022/06/25 04:20:46;;;;;;;5.65;3.50;;;;;;;19.73;100.00;99419.66;6246529;22;20075;-82
2022/06/25 04:23:13;;;;;;;4.57;2.95;;;;;;;19.70;100.00;99430.75;6249084;22;20019;-82
2022/06/25 04:25:40;;;;;;;3.45;3.10;;;;;;;19.66;100.00;99429.50;6257525;22;20031;-82
2022/06/25 04:31:28;;;;;;;3.50;3.20;;;;;;;19.81;100.00;99435.50;6160750;23;20496;-82
2022/06/25 04:33:54;;;;;;;3.92;3.53;;;;;;;19.87;100.00;99433.84;6265492;22;20086;-82
2022/06/25 04:36:20;;;;;;;6.93;3.70;;;;;;;19.83;100.00;99446.00;6246772;22;20012;-81
2022/06/25 04:38:50;;;;;;;3.85;3.17;;;;;;;19.68;100.00;99443.50;6244965;22;20102;-81
2022/06/25 04:41:19;;;;;;;4.15;2.95;;;;;;;19.62;100.00;99441.63;6248022;22;20015;-81
2022/06/25 04:43:48;;;;;;;5.10;3.67;;;;;;;19.64;100.00;99434.25;6248421;22;20028;-82
2022/06/25 04:46:19;;;;;;;3.70;2.80;;;;;;;19.63;100.00;99438.75;6246912;22;20085;-81
2022/06/25 04:48:46;;;;;;;3.78;2.72;;;;;;;19.67;100.00;99433.84;6246784;22;20034;-82
2022/06/25 04:51:26;;;;;;;3.55;2.90;;;;;;;19.65;100.00;99438.56;6246998;22;20098;-82
2022/06/25 04:53:55;;;;;;;3.42;2.85;;;;;;;19.68;100.00;99438.16;6246416;22;20604;-80
2022/06/25 04:56:29;;;;;;;5.93;2.90;;;;;;;19.73;100.00;99443.75;6255360;22;20063;-87
2022/06/25 04:58:57;;;;;;;4.90;3.50;;;;;;;19.75;100.00;99428.28;6259062;22;20008;-87
2022/06/25 05:01:41;;;;;;;3.67;3.38;;;;;;;19.73;100.00;99435.72;6285174;22;20038;-87
2022/06/25 05:04:07;;;;;;;4.97;3.92;;;;;;;19.79;100.00;99432.19;6259442;22;20091;-87
2022/06/25 05:06:33;;;;;;;3.30;3.00;;;;;;;19.84;100.00;99432.41;6255093;22;20463;-82
2022/06/25 05:08:58;;;;;;;5.38;3.08;;;;;;;19.92;100.00;99437.56;6253658;22;20057;-82
2022/06/25 05:11:24;;;;;;;5.50;3.63;;;;;;;20.04;100.00;99438.59;6279998;22;20377;-82
2022/06/25 05:13:50;;;;;;;4.75;3.08;;;;;;;20.13;100.00;99446.44;6280382;22;20064;-83
2022/06/25 05:16:17;;;;;;;4.53;3.63;;;;;;;20.19;100.00;99445.59;6251600;22;20434;-82
2022/06/25 05:18:44;;;;;;;3.70;2.78;;;;;;;20.22;100.00;99455.88;6251433;22;20106;-82
2022/06/25 05:21:10;;;;;;;3.15;2.85;;;;;;;20.30;100.00;99453.00;6226579;22;20360;-82
2022/06/25 05:23:36;;;;;;;3.70;2.83;;;;;;;20.42;100.00;99459.41;6278938;22;20015;-81
2022/06/25 05:26:02;;;;;;;4.32;2.50;;;;;;;20.52;100.00;99457.13;6251961;22;20015;-81
2022/06/25 05:28:28;;;;;;;3.60;2.50;;;;;;;20.67;100.00;99460.41;6279153;22;20004;-81
2022/06/25 05:30:54;;;;;;;5.28;2.80;;;;;;;20.84;100.00;99456.22;6252692;22;20434;-82
2022/06/25 05:33:20;;;;;;;3.50;2.75;;;;;;;20.91;100.00;99460.75;6250329;22;20372;-81
2022/06/25 05:35:46;;;;;;;3.78;2.55;;;;;;;20.99;100.00;99463.19;6250105;22;20015;-81
2022/06/25 05:38:12;;;;;;;2.40;2.20;;;;;;;21.03;100.00;99464.44;6276711;22;20476;-81
2022/06/25 05:40:39;;;;;;;3.85;2.33;;;;;;;21.08;100.00;99476.16;6278303;22;20003;-81
2022/06/25 05:43:04;;;;;;;2.63;2.17;;;;;;;21.12;100.00;99479.22;6277605;22;20003;-81
2022/06/25 05:45:30;;;;;;;3.88;2.42;;;;;;;21.14;100.00;99482.53;6276743;22;20015;-80
2022/06/25 05:47:56;;;;;;;4.40;2.45;;;;;;;21.07;100.00;99487.09;6275634;22;20416;-82
2022/06/25 05:50:22;;;;;;;4.20;2.28;;;;;;;21.09;100.00;99495.75;6278905;22;20099;-86
2022/06/25 05:52:47;;;;;;;2.75;2.00;;;;;;;21.05;100.00;99486.47;6279540;22;20004;-85
2022/06/25 05:55:13;;;;;;;3.17;1.80;;;;;;;21.08;100.00;99483.38;6246611;22;20016;-83
2022/06/25 05:57:39;;;;;;;4.43;2.38;;;;;;;21.10;100.00;99497.41;6255543;22;20010;-79
2022/06/25 06:00:08;;;;;;;9.63;2.30;;;;;;;21.13;100.00;99496.97;6257875;22;20012;-88
2022/06/25 06:02:40;;;;;;;3.83;2.58;;;;;;;21.09;100.00;99501.94;6281440;22;20075;-83
2022/06/25 06:05:06;;;;;;;3.05;2.60;;;;;;;21.12;100.00;99500.69;6278928;22;20015;-86
2022/06/25 06:07:31;;;;;;;5.70;2.92;;;;;;;21.13;100.00;99507.72;6281250;22;20042;-89
2022/06/25 06:09:57;;;;;;;3.33;3.03;;;;;;;21.11;100.00;99507.09;6246639;22;20591;-77
2022/06/25 06:12:22;;;;;;;5.95;3.38;;;;;;;21.13;100.00;99499.66;6272660;22;20889;-78
2022/06/25 06:14:48;;;;;;;3.80;3.20;;;;;;;21.16;100.00;99501.94;6272898;22;20107;-76
2022/06/25 06:17:14;;;;;;;3.88;3.20;;;;;;;20.96;100.00;99501.19;6245743;22;20007;-76
2022/06/25 06:19:39;;;;;;;4.13;3.10;;;;;;;21.07;100.00;99513.94;6273075;22;20411;-75
2022/06/25 06:22:05;;;;;;;5.63;3.10;;;;;;;21.10;100.00;99503.59;6273971;22;20003;-82
2022/06/25 06:24:31;;;;;;;3.65;3.28;;;;;;;21.15;100.00;99500.28;6274185;22;20019;-83
2022/06/25 06:26:56;;;;;;;3.28;2.65;;;;;;;21.18;100.00;99505.25;6248495;22;20015;-85
2022/06/25 06:29:22;;;;;;;4.05;2.92;;;;;;;21.24;100.00;99509.78;6250177;22;20016;-87
2022/06/25 06:31:47;;;;;;;4.85;3.55;;;;;;;21.35;100.00;99503.72;6278038;22;20003;-85
2022/06/25 06:34:13;;;;;;;4.00;3.15;;;;;;;21.33;100.00;99508.47;6249420;22;20052;-91
2022/06/25 06:36:39;;;;;;;5.32;3.55;;;;;;;21.34;100.00;99503.94;6281974;22;20089;-83
2022/06/25 06:39:04;;;;;;;3.88;3.15;;;;;;;21.37;100.00;99498.16;6254487;22;20023;-85
2022/06/25 06:41:30;;;;;;;5.57;2.92;;;;;;;21.44;100.00;99497.06;6279764;22;20018;-81
2022/06/25 06:43:55;;;;;;;5.40;3.10;;;;;;;21.55;100.00;99491.03;6278238;22;20432;-82
2022/06/25 06:46:21;;;;;;;3.13;2.80;;;;;;;21.67;100.00;99498.41;6276151;22;20046;-86
2022/06/25 06:48:47;;;;;;;7.15;2.97;;;;;;;21.56;100.00;99497.22;6278922;22;20027;-84
2022/06/25 06:51:12;;;;;;;3.85;2.60;;;;;;;21.78;100.00;99505.78;6276487;22;20018;-83
2022/06/25 06:53:38;;;;;;;8.77;4.57;;;;;;;21.50;100.00;99501.59;6248142;22;20011;-84
2022/06/25 06:56:03;;;;;;;6.72;5.00;;;;;;;21.68;100.00;99495.50;6277124;22;20004;-85
2022/06/25 06:58:31;;;;;;;7.72;4.18;;;;;;;21.68;100.00;99492.81;6276085;22;20031;-85
2022/06/25 07:00:57;;;;;;;10.23;6.97;;;;;;;21.58;100.00;99493.28;6277468;22;20008;-85
2022/06/25 07:03:22;;;;;;;12.82;5.82;;;;;;;21.57;100.00;99499.69;6276720;22;20016;-84
2022/06/25 07:05:48;;;;;;;11.77;6.93;;;;;;;21.69;100.00;99501.69;6275602;22;20126;-84
2022/06/25 07:08:20;;;;;;;11.85;7.30;;;;;;;21.74;100.00;99515.28;6277730;22;20008;-84
2022/06/25 07:10:46;;;;;;;14.23;9.38;;;;;;;21.78;100.00;99505.78;6276597;22;20017;-82
2022/06/25 07:13:12;;;;;;;13.95;8.88;;;;;;;21.77;100.00;99504.13;6277109;22;20069;-84
2022/06/25 07:15:39;;;;;;;17.50;7.63;;;;;;;21.85;100.00;99501.19;6277816;22;20061;-85
2022/06/25 07:18:05;;;;;;;11.75;7.50;;;;;;;21.94;100.00;99502.56;6277997;22;20008;-83
2022/06/25 07:20:31;;;;;;;11.40;6.45;;;;;;;21.94;100.00;99505.25;6277609;22;20046;-83
2022/06/25 07:22:56;;;;;;;13.52;5.40;;;;;;;22.01;100.00;99503.38;6276835;22;20003;-83
2022/06/25 07:25:22;;;;;;;10.77;6.82;;;;;;;22.04;100.00;99502.94;6247948;22;20039;-83
2022/06/25 07:27:48;;;;;;;14.32;5.20;;;;;;;22.07;100.00;99499.81;6276528;22;20022;-84
2022/06/25 07:30:15;;;;;;;13.52;5.50;;;;;;;22.18;100.00;99496.44;6276059;22;20011;-84
2022/06/25 07:32:41;;;;;;;11.27;5.15;;;;;;;22.18;100.00;99507.19;6277416;22;20035;-85
2022/06/25 07:35:07;;;;;;;7.85;5.47;;;;;;;22.22;100.00;99505.69;6278436;22;20003;-84
2022/06/25 07:37:33;;;;;;;6.45;4.45;;;;;;;22.26;100.00;99504.22;6282188;22;20008;-85
2022/06/25 07:39:59;;;;;;;9.60;4.97;;;;;;;22.28;100.00;99501.31;6283110;22;20004;-84
2022/06/25 07:42:25;;;;;;;9.48;4.80;;;;;;;22.34;100.00;99497.72;6282059;22;20004;-85
2022/06/25 07:44:50;;;;;;;9.82;5.20;;;;;;;22.43;100.00;99489.19;6252688;22;20079;-85
2022/06/25 07:47:16;;;;;;;11.63;5.47;;;;;;;22.45;100.00;99494.31;6280626;22;20055;-85
2022/06/25 07:52:26;;;;;;;9.32;4.75;;;;;;;22.64;100.00;99484.44;6274854;22;20015;-85
2022/06/25 07:54:52;;;;;;;6.82;5.10;;;;;;;22.69;100.00;99487.25;6274861;22;20413;-85
2022/06/25 07:57:17;;;;;;;7.88;5.43;;;;;;;22.64;100.00;99487.13;6274379;22;20382;-85
2022/06/25 07:59:43;;;;;;;6.03;5.40;;;;;;;22.68;100.00;99491.03;6274615;22;20030;-85
2022/06/25 08:02:08;;;;;;;10.68;5.78;;;;;;;22.67;100.00;99489.38;6273974;22;20484;-84
2022/06/25 08:04:34;;;;;;;8.43;6.13;;;;;;;22.71;100.00;99485.19;6274709;22;20536;-85
2022/06/25 08:07:00;;;;;;;10.50;5.63;;;;;;;22.81;100.00;99486.34;6247346;22;20379;-85
2022/06/25 08:09:26;;;;;;;7.65;5.60;;;;;;;22.92;100.00;99490.16;6274197;22;20012;-83
2022/06/25 08:11:51;;;;;;;7.55;5.90;;;;;;;23.04;100.00;99491.06;6275306;22;20011;-85
2022/06/25 08:14:17;;;;;;;9.82;6.00;;;;;;;23.13;100.00;99495.09;6274333;22;20118;-85
2022/06/25 08:16:42;;;;;;;8.02;6.13;;;;;;;23.14;100.00;99491.38;6276555;22;20015;-84
2022/06/25 08:19:08;;;;;;;6.00;4.85;;;;;;;23.18;100.00;99491.72;6275992;22;20090;-86
2022/06/25 08:21:33;;;;;;;8.48;5.82;;;;;;;23.25;100.00;99487.91;6275210;22;20034;-84
2022/06/25 08:23:59;;;;;;;7.43;5.03;;;;;;;23.30;100.00;99492.63;6274756;22;20034;-85
2022/06/25 08:26:25;;;;;;;7.72;4.97;;;;;;;23.37;100.00;99487.16;6275707;22;20011;-84
2022/06/25 08:28:50;;;;;;;6.90;4.78;;;;;;;23.46;100.00;99485.78;6273863;22;20053;-85
2022/06/25 08:31:16;;;;;;;6.28;5.32;;;;;;;23.53;100.00;99478.47;6273979;22;20031;-84
2022/06/25 08:33:41;;;;;;;6.13;4.97;;;;;;;23.59;100.00;99477.53;6275161;22;20007;-85
2022/06/25 08:36:07;;;;;;;7.60;4.53;;;;;;;23.65;100.00;99471.25;6274446;22;20016;-85
2022/06/25 08:38:33;;;;;;;6.57;4.85;;;;;;;23.68;100.00;99478.84;6276742;22;20038;-86
2022/06/25 08:40:59;;;;;;;8.20;5.68;;;;;;;23.58;100.00;99478.59;6277586;22;19999;-86
2022/06/25 08:43:25;;;;;;;7.35;5.07;;;;;;;23.59;100.00;99477.53;6246406;23;20425;-86
2022/06/25 08:45:52;;;;;;;6.38;4.55;;;;;;;23.66;100.00;99483.66;6247152;22;20016;-85
2022/06/25 08:48:42;;;;;;;9.10;5.28;;;;;;;23.66;100.00;99475.59;6244349;23;20012;-86
2022/06/25 08:51:08;;;;;;;9.35;5.35;;;;;;;23.74;100.00;99469.84;6245728;22;20004;-85
2022/06/25 08:53:34;;;;;;;5.72;4.88;;;;;;;23.76;100.00;99469.63;6243905;22;20264;-85
2022/06/25 08:56:01;;;;;;;5.32;4.50;;;;;;;23.72;98.68;99474.66;6244042;23;20011;-86
2022/06/25 08:58:27;;;;;;;6.55;4.18;;;;;;;23.76;98.25;99473.16;6243879;22;20004;-85
2022/06/25 09:00:53;;;;;;;5.63;3.75;;;;;;;23.84;98.01;99475.53;6242618;23;20011;-85
2022/06/25 09:03:43;;;;;;;7.38;4.25;;;;;;;23.92;100.00;99471.66;6244213;23;20126;-85
2022/06/25 09:06:16;;;;;;;7.00;5.03;;;;;;;23.94;100.00;99470.38;6242591;23;20016;-85
2022/06/25 09:08:43;;;;;;;5.55;4.43;;;;;;;23.99;96.13;99473.19;6244349;22;20471;-85
2022/06/25 09:11:10;;;;;;;7.30;4.45;;;;;;;23.94;95.89;99470.38;6246698;22;20004;-84
2022/06/25 09:13:35;;;;;;;7.35;3.83;;;;;;;23.96;95.25;99465.59;6247874;22;20015;-85
2022/06/25 09:16:01;;;;;;;6.72;4.25;;;;;;;23.96;97.43;99462.91;6248188;22;20012;-85
2022/06/25 09:18:27;;;;;;;6.07;3.97;;;;;;;24.03;94.91;99463.59;6248313;23;19996;-85
2022/06/25 09:21:02;;;;;;;5.47;4.45;;;;;;;24.17;95.15;99466.06;6244158;22;20008;-86
2022/06/25 09:23:35;;;;;;;5.90;3.83;;;;;;;24.27;94.10;99461.78;6243421;22;20036;-84
2022/06/25 09:26:04;;;;;;;5.20;3.75;;;;;;;24.30;93.77;99457.81;6242970;23;20039;-85
2022/06/25 09:28:39;;;;;;;5.32;3.72;;;;;;;24.37;95.36;99458.50;6243031;22;20444;-85
2022/06/25 09:31:05;;;;;;;7.57;3.70;;;;;;;24.40;92.28;99452.63;6242694;22;20012;-85
2022/06/25 09:33:32;;;;;;;8.77;3.80;;;;;;;24.42;93.20;99454.06;6243174;22;20071;-85
2022/06/25 09:35:59;;;;;;;4.88;3.53;;;;;;;24.42;92.90;99459.44;6243399;23;20015;-86
2022/06/25 09:38:25;;;;;;;7.07;3.70;;;;;;;24.47;93.71;99458.75;6243323;22;20429;-84
2022/06/25 09:40:58;;;;;;;6.95;4.53;;;;;;;24.55;94.78;99461.09;6241229;23;20474;-85
2022/06/25 09:43:27;;;;;;;5.72;4.00;;;;;;;24.55;93.06;99455.69;6249448;22;20321;-84
2022/06/25 09:45:55;;;;;;;7.90;4.10;;;;;;;24.60;94.51;99447.72;6246397;22;20390;-84
2022/06/25 09:48:29;;;;;;;4.97;3.60;;;;;;;24.67;94.11;99448.41;6246086;22;20096;-84
2022/06/25 09:51:15;;;;;;;5.30;3.60;;;;;;;24.74;95.18;99443.69;6246804;22;20459;-84
2022/06/25 09:54:09;;;;;;;4.93;3.67;;;;;;;24.75;95.30;99439.13;6220965;22;20031;-85
2022/06/25 09:56:35;;;;;;;5.03;3.78;;;;;;;24.70;95.81;99434.44;6217271;22;20015;-85
2022/06/25 09:59:01;;;;;;;5.35;3.25;;;;;;;24.74;94.70;99432.91;6220257;22;20042;-85
2022/06/25 10:01:32;;;;;;;4.43;3.00;;;;;;;24.80;94.40;99437.34;6245853;22;20026;-85
2022/06/25 10:04:03;;;;;;;8.38;3.65;;;;;;;24.92;91.96;99436.56;6212533;22;20042;-84
2022/06/25 10:06:33;;;;;;;3.78;3.38;;;;;;;24.94;90.48;99432.53;6220977;22;20070;-85
2022/06/25 10:09:02;;;;;;;8.05;3.63;;;;;;;24.90;90.13;99435.97;6220743;22;20102;-85
2022/06/25 10:11:31;;;;;;;4.90;3.60;;;;;;;24.84;90.67;99443.09;6221129;22;20074;-85
2022/06/25 10:13:57;;;;;;;5.25;3.15;;;;;;;24.82;90.33;99434.41;6220688;22;20712;-84
2022/06/25 10:16:25;;;;;;;4.50;3.47;;;;;;;24.84;88.74;99427.72;6245606;22;20341;-85
2022/06/25 10:18:52;;;;;;;4.30;3.45;;;;;;;24.91;90.46;99426.81;6221174;22;20012;-85
2022/06/25 10:21:20;;;;;;;5.32;3.63;;;;;;;24.99;88.92;99423.72;6245970;22;20756;-84
2022/06/25 10:23:51;;;;;;;4.57;3.40;;;;;;;25.07;90.33;99420.66;6272965;22;20066;-85
2022/06/25 10:26:19;;;;;;;5.10;3.40;;;;;;;25.16;88.79;99424.59;6273324;22;20432;-84
2022/06/25 10:28:45;;;;;;;7.88;3.92;;;;;;;25.20;88.08;99431.19;6273066;22;20004;-85
2022/06/25 10:31:14;;;;;;;9.35;4.03;;;;;;;25.19;88.65;99424.13;6245839;22;20012;-84
2022/06/25 10:33:59;;;;;;;8.05;3.63;;;;;;;25.21;88.34;99416.63;6274223;22;20025;-85
2022/06/25 10:36:45;;;;;;;5.93;4.00;;;;;;;25.23;91.16;99419.88;6282659;22;20082;-84
2022/06/25 10:39:23;;;;;;;11.52;3.88;;;;;;;25.28;88.04;99411.88;6279213;22;20444;-85
2022/06/25 10:45:04;;;;;;;6.18;3.90;;;;;;;25.32;86.99;99418.47;6207665;22;20039;-85
2022/06/25 10:47:53;;;;;;;5.88;3.55;;;;;;;25.29;86.71;99414.34;6272746;22;20424;-85
2022/06/25 10:50:21;;;;;;;5.93;3.90;;;;;;;25.27;88.04;99410.25;6272189;22;20441;-85
2022/06/25 10:53:05;;;;;;;8.65;3.67;;;;;;;25.20;87.60;99398.78;6272014;22;20427;-85
2022/06/25 10:55:40;;;;;;;6.07;3.15;;;;;;;25.19;88.14;99402.53;6272540;22;20012;-83
2022/06/25 10:58:15;;;;;;;4.03;3.45;;;;;;;25.20;86.25;99409.59;6272646;22;20129;-84
2022/06/25 11:01:01;;;;;;;8.43;3.60;;;;;;;25.24;84.96;99406.16;6272659;22;20454;-84
2022/06/25 11:03:32;;;;;;;5.63;3.58;;;;;;;25.29;85.68;99398.13;6272376;22;20433;-85
2022/06/25 11:06:17;;;;;;;4.82;3.60;;;;;;;25.33;85.54;99387.66;6272656;22;20011;-84
2022/06/25 11:08:46;;;;;;;5.95;4.00;;;;;;;25.39;84.88;99386.69;6273212;22;20072;-85
2022/06/25 11:11:21;;;;;;;6.30;3.27;;;;;;;25.46;85.15;99384.66;6220740;22;20452;-85
2022/06/25 11:13:47;;;;;;;4.10;3.42;;;;;;;25.56;84.18;99390.28;6272672;22;20015;-84
2022/06/25 11:16:17;;;;;;;6.28;3.67;;;;;;;25.69;80.81;99389.97;6271934;22;20011;-86
2022/06/25 11:18:55;;;;;;;5.97;3.65;;;;;;;25.75;78.88;99388.16;6272588;22;20448;-85
2022/06/25 11:21:36;;;;;;;4.88;3.20;;;;;;;25.82;78.90;99383.41;6244700;22;20383;-86
2022/06/25 11:24:10;;;;;;;5.53;3.15;;;;;;;25.91;77.35;99383.84;6271960;22;20019;-86
2022/06/25 11:29:25;;;;;;;3.83;2.95;;;;;;;25.99;77.65;99386.09;6271882;22;20011;-85
2022/06/25 11:31:52;;;;;;;5.90;2.70;;;;;;;26.00;76.82;99380.47;6271755;22;20319;-86
2022/06/25 11:34:20;;;;;;;8.77;3.03;;;;;;;26.03;75.13;99376.47;6271696;22;20019;-85
2022/06/25 11:37:04;;;;;;;4.78;2.80;;;;;;;25.96;75.94;99370.41;6245323;22;20404;-85
2022/06/25 11:39:30;;;;;;;4.10;3.30;;;;;;;26.05;76.44;99368.91;6272739;22;20043;-85
2022/06/25 11:41:57;;;;;;;5.00;3.05;;;;;;;26.11;75.58;99367.91;6245346;22;20391;-86
2022/06/25 11:44:23;;;;;;;3.42;2.85;;;;;;;26.23;75.27;99374.06;6271831;22;20426;-85
2022/06/25 11:46:50;;;;;;;4.43;2.97;;;;;;;26.28;75.39;99366.03;6245038;22;20042;-85
2022/06/25 11:49:19;;;;;;;4.18;2.83;;;;;;;26.37;73.91;99361.84;6244674;22;20007;-85